createdAt,value
2022-09-18T00:00:34.795Z,96.40
2022-09-18T00:03:04.304Z,96.70
2022-09-18T00:05:36.912Z,96.90
2022-09-18T00:08:08.081Z,97.30
2022-09-18T00:10:47.194Z,97.40
2022-09-18T00:13:16.973Z,97.10
2022-09-18T00:15:49.543Z,97.20
2022-09-18T00:18:22.784Z,97.00
2022-09-18T00:20:56.431Z,97.10
2022-09-18T00:23:26.790Z,97.00
2022-09-18T00:25:56.255Z,97.00
2022-09-18T00:28:25.831Z,97.00
2022-09-18T00:30:55.512Z,97.20
2022-09-18T00:33:25.048Z,97.20
2022-09-18T00:36:00.751Z,97.20
2022-09-18T00:38:33.265Z,97.30
2022-09-18T00:41:05.732Z,97.30
2022-09-18T00:43:38.082Z,97.50
2022-09-18T00:46:30.495Z,97.80
2022-09-18T00:49:12.239Z,97.60
2022-09-18T00:51:43.755Z,97.70
2022-09-18T00:54:39.144Z,97.70
2022-09-18T00:57:14.599Z,97.80
2022-09-18T00:59:47.059Z,98.20
2022-09-18T01:02:16.994Z,98.50
2022-09-18T01:04:47.501Z,98.30
2022-09-18T01:07:34.540Z,98.10
2022-09-18T01:10:25.348Z,98.60
2022-09-18T01:13:01.373Z,98.50
2022-09-18T01:15:45.926Z,98.70
2022-09-18T01:18:35.987Z,99.30
2022-09-18T01:21:14.569Z,99.00
2022-09-18T01:24:07.367Z,99.00
2022-09-18T01:26:45.743Z,98.60
2022-09-18T01:29:21.189Z,98.70
2022-09-18T01:31:53.798Z,98.70
2022-09-18T01:34:28.677Z,98.60
2022-09-18T01:37:07.226Z,98.90
2022-09-18T01:39:43.353Z,98.70
2022-09-18T01:42:16.184Z,98.90
2022-09-18T01:44:48.121Z,99.20
2022-09-18T01:47:20.663Z,99.40
2022-09-18T01:49:55.576Z,98.70
2022-09-18T01:52:28.130Z,98.80
2022-09-18T01:55:00.647Z,98.90
2022-09-18T01:57:33.979Z,98.90
2022-09-18T02:00:07.944Z,99.00
2022-09-18T02:02:57.500Z,99.10
2022-09-18T02:05:36.532Z,99.30
2022-09-18T02:08:18.141Z,99.30
2022-09-18T02:10:51.612Z,99.30
2022-09-18T02:13:24.365Z,99.00
2022-09-18T02:15:56.887Z,99.10
2022-09-18T02:18:29.511Z,99.40
2022-09-18T02:21:03.220Z,99.20
2022-09-18T02:25:40.595Z,99.30
2022-09-18T02:28:10.705Z,99.30
2022-09-18T02:30:56.338Z,99.40
2022-09-18T02:33:29.677Z,99.70
2022-09-18T02:36:04.831Z,99.80
2022-09-18T02:38:39.020Z,99.90
2022-09-18T02:41:20.363Z,99.90
2022-09-18T02:43:59.228Z,99.90
2022-09-18T02:46:39.677Z,99.90
2022-09-18T02:49:32.342Z,99.90
2022-09-18T02:52:23.039Z,99.90
2022-09-18T02:55:03.199Z,99.90
2022-09-18T02:57:35.729Z,99.90
2022-09-18T03:00:11.135Z,99.90
2022-09-18T03:02:41.645Z,99.90
2022-09-18T03:05:13.119Z,99.90
2022-09-18T03:07:44.425Z,99.90
2022-09-18T03:10:13.953Z,99.90
2022-09-18T03:12:43.416Z,99.90
2022-09-18T03:15:13.020Z,99.90
2022-09-18T03:17:42.533Z,99.90
2022-09-18T03:20:12.088Z,99.90
2022-09-18T03:22:41.605Z,99.90
2022-09-18T03:25:14.711Z,99.90
2022-09-18T03:27:44.217Z,99.90
2022-09-18T03:30:15.475Z,99.90
2022-09-18T03:32:45.136Z,99.90
2022-09-18T03:35:15.327Z,99.90
2022-09-18T03:37:44.762Z,99.90
2022-09-18T03:40:19.355Z,99.90
2022-09-18T03:42:50.931Z,99.90
2022-09-18T03:45:20.587Z,99.90
2022-09-18T03:47:50.091Z,99.90
2022-09-18T03:50:19.592Z,99.90
2022-09-18T03:52:51.596Z,99.90
2022-09-18T03:55:26.225Z,99.90
2022-09-18T03:58:14.146Z,99.90
2022-09-18T04:00:48.017Z,99.90
2022-09-18T04:03:19.239Z,99.90
2022-09-18T04:06:07.828Z,99.90
2022-09-18T04:08:47.983Z,99.90
2022-09-18T04:11:19.115Z,99.90
2022-09-18T04:13:48.541Z,99.90
2022-09-18T04:16:19.491Z,99.90
2022-09-18T04:18:49.010Z,99.90
2022-09-18T04:21:18.509Z,99.90
2022-09-18T04:23:48.338Z,99.90
2022-09-18T04:26:19.531Z,99.90
2022-09-18T04:28:50.665Z,99.90
2022-09-18T04:31:21.205Z,99.90
2022-09-18T04:33:50.844Z,99.90
2022-09-18T04:36:22.094Z,99.90
2022-09-18T04:38:51.570Z,99.90
2022-09-18T04:41:21.961Z,99.90
2022-09-18T04:43:52.166Z,99.90
2022-09-18T04:46:21.945Z,99.90
2022-09-18T04:48:54.341Z,99.90
2022-09-18T04:51:27.011Z,99.90
2022-09-18T04:53:56.799Z,99.90
2022-09-18T04:56:26.305Z,99.90
2022-09-18T04:58:56.661Z,99.90
2022-09-18T05:01:26.234Z,99.90
2022-09-18T05:03:55.907Z,99.90
2022-09-18T05:06:29.957Z,99.90
2022-09-18T05:09:01.302Z,99.90
2022-09-18T05:11:30.849Z,99.90
2022-09-18T05:14:00.417Z,99.90
2022-09-18T05:16:32.101Z,99.90
2022-09-18T05:19:15.130Z,99.90
2022-09-18T05:21:44.726Z,99.90
2022-09-18T05:24:14.623Z,99.90
2022-09-18T05:26:45.712Z,99.90
2022-09-18T05:29:16.610Z,99.90
2022-09-18T05:31:46.306Z,99.90
2022-09-18T05:34:17.654Z,99.90
2022-09-18T05:36:47.544Z,99.90
2022-09-18T05:39:17.874Z,99.90
2022-09-18T05:41:51.265Z,99.90
2022-09-18T05:44:21.196Z,99.90
2022-09-18T05:46:51.043Z,99.90
2022-09-18T05:49:20.661Z,99.90
2022-09-18T05:51:50.166Z,99.90
2022-09-18T05:54:19.683Z,99.90
2022-09-18T05:56:50.873Z,99.90
2022-09-18T05:59:20.287Z,99.90
2022-09-18T06:01:50.211Z,99.90
2022-09-18T06:04:27.507Z,99.90
2022-09-18T06:06:58.705Z,99.90
2022-09-18T06:09:28.623Z,99.90
2022-09-18T06:11:58.713Z,99.90
2022-09-18T06:14:28.226Z,99.90
2022-09-18T06:17:00.258Z,99.90
2022-09-18T06:19:31.786Z,99.90
2022-09-18T06:22:01.289Z,99.90
2022-09-18T06:24:30.959Z,99.90
2022-09-18T06:27:11.132Z,99.90
2022-09-18T06:29:41.076Z,99.90
2022-09-18T06:32:14.923Z,99.90
2022-09-18T06:34:44.514Z,99.90
2022-09-18T06:37:16.721Z,99.90
2022-09-18T06:39:47.930Z,99.90
2022-09-18T06:42:25.020Z,99.90
2022-09-18T06:44:56.499Z,99.90
2022-09-18T06:47:26.100Z,99.90
2022-09-18T06:49:57.014Z,99.90
2022-09-18T06:52:26.576Z,99.90
2022-09-18T06:54:57.623Z,99.90
2022-09-18T06:57:28.812Z,99.90
2022-09-18T06:59:59.127Z,99.90
2022-09-18T07:02:30.192Z,99.90
2022-09-18T07:05:07.309Z,99.90
2022-09-18T07:07:38.439Z,99.90
2022-09-18T07:10:09.314Z,99.90
2022-09-18T07:12:40.549Z,99.90
2022-09-18T07:15:10.717Z,99.90
2022-09-18T07:17:40.145Z,99.90
2022-09-18T07:20:12.112Z,99.90
2022-09-18T07:22:47.306Z,99.90
2022-09-18T07:25:14.839Z,99.90
2022-09-18T07:27:45.189Z,99.90
2022-09-18T07:30:14.428Z,99.90
2022-09-18T07:32:43.603Z,99.90
2022-09-18T07:35:14.347Z,99.90
2022-09-18T07:37:44.120Z,99.90
2022-09-18T07:40:17.604Z,99.90
2022-09-18T07:43:07.614Z,99.90
2022-09-18T07:45:37.411Z,99.90
2022-09-18T07:48:06.805Z,99.90
2022-09-18T07:50:37.331Z,99.90
2022-09-18T07:53:07.469Z,99.90
2022-09-18T07:55:37.833Z,99.90
2022-09-18T07:58:07.423Z,99.90
2022-09-18T08:00:54.104Z,99.90
2022-09-18T08:03:25.675Z,99.90
2022-09-18T08:05:56.042Z,99.90
2022-09-18T08:08:25.943Z,99.90
2022-09-18T08:11:11.649Z,99.50
2022-09-18T08:13:51.270Z,99.20
2022-09-18T08:16:30.409Z,98.80
2022-09-18T08:19:04.179Z,98.00
2022-09-18T08:21:37.698Z,97.50
2022-09-18T08:24:08.040Z,98.50
2022-09-18T08:26:38.897Z,98.30
2022-09-18T08:29:08.323Z,97.80
2022-09-18T08:31:38.513Z,98.80
2022-09-18T08:34:09.892Z,97.20
2022-09-18T08:36:38.536Z,96.00
2022-09-18T08:39:17.795Z,95.60
2022-09-18T08:42:06.285Z,97.70
2022-09-18T08:44:39.506Z,97.60
2022-09-18T08:47:12.398Z,95.90
2022-09-18T08:49:42.556Z,97.50
2022-09-18T08:52:14.988Z,96.20
2022-09-18T08:54:45.427Z,96.50
2022-09-18T08:57:31.662Z,95.70
2022-09-18T09:00:10.620Z,94.90
2022-09-18T09:02:45.038Z,96.10
2022-09-18T09:05:18.553Z,95.30
2022-09-18T09:07:54.815Z,95.10
2022-09-18T09:10:24.984Z,94.80
2022-09-18T09:13:00.003Z,94.70
2022-09-18T09:15:30.954Z,94.50
2022-09-18T09:18:11.894Z,93.80
2022-09-18T09:20:54.361Z,93.50
2022-09-18T09:23:32.472Z,93.50
2022-09-18T09:26:12.811Z,92.50
2022-09-18T09:28:56.685Z,92.70
2022-09-18T09:31:44.650Z,93.30
2022-09-18T09:34:31.071Z,92.80
2022-09-18T09:37:03.597Z,91.40
2022-09-18T09:39:34.185Z,92.30
2022-09-18T09:42:07.987Z,92.20
2022-09-18T09:44:39.242Z,92.60
2022-09-18T09:47:15.272Z,91.40
2022-09-18T09:50:02.622Z,90.80
2022-09-18T09:52:33.221Z,91.30
2022-09-18T09:55:19.247Z,91.10
2022-09-18T09:58:00.099Z,90.10
2022-09-18T10:00:30.669Z,90.50
2022-09-18T10:03:02.541Z,90.20
2022-09-18T10:05:34.376Z,91.40
2022-09-18T10:08:04.619Z,90.40
2022-09-18T10:10:35.837Z,89.20
2022-09-18T10:13:13.121Z,87.10
2022-09-18T10:15:43.910Z,89.40
2022-09-18T10:18:18.648Z,90.10
2022-09-18T10:20:49.157Z,89.00
2022-09-18T10:23:19.561Z,88.90
2022-09-18T10:26:01.746Z,85.80
2022-09-18T10:28:30.949Z,86.60
2022-09-18T10:31:05.456Z,87.70
2022-09-18T10:33:37.076Z,85.80
2022-09-18T10:36:19.629Z,85.20
2022-09-18T10:38:48.518Z,86.40
2022-09-18T10:41:20.644Z,86.90
2022-09-18T10:43:57.386Z,85.30
2022-09-18T10:46:29.720Z,86.00
2022-09-18T10:49:01.616Z,81.40
2022-09-18T10:51:30.353Z,82.40
2022-09-18T10:54:04.315Z,81.50
2022-09-18T10:56:34.701Z,83.10
2022-09-18T10:59:04.866Z,81.40
2022-09-18T11:01:33.527Z,85.30
2022-09-18T11:04:04.363Z,83.80
2022-09-18T11:06:36.519Z,82.50
2022-09-18T11:09:08.690Z,82.10
2022-09-18T11:11:38.458Z,80.00
2022-09-18T11:14:22.341Z,80.40
2022-09-18T11:16:54.204Z,79.10
2022-09-18T11:19:25.603Z,78.40
2022-09-18T11:21:56.096Z,80.30
2022-09-18T11:24:26.592Z,77.70
2022-09-18T11:26:58.102Z,77.70
2022-09-18T11:29:31.203Z,79.90
2022-09-18T11:32:05.246Z,79.30
2022-09-18T11:34:39.611Z,78.80
2022-09-18T11:37:13.087Z,77.50
2022-09-18T11:39:43.299Z,75.90
2022-09-18T11:42:14.732Z,76.40
2022-09-18T11:44:45.676Z,76.80
2022-09-18T11:47:21.570Z,73.80
2022-09-18T11:49:57.522Z,74.50
2022-09-18T11:52:46.792Z,74.00
2022-09-18T11:55:33.798Z,73.60
2022-09-18T11:58:04.121Z,74.50
2022-09-18T12:00:35.867Z,72.90
2022-09-18T12:03:09.373Z,70.70
2022-09-18T12:05:41.012Z,70.60
2022-09-18T12:08:12.795Z,71.20
2022-09-18T12:10:57.093Z,71.10
2022-09-18T12:13:30.499Z,71.00
2022-09-18T12:16:10.344Z,71.60
2022-09-18T12:18:41.595Z,70.60
2022-09-18T12:21:11.755Z,69.00
2022-09-18T12:23:41.523Z,70.00
2022-09-18T12:26:11.675Z,69.70
2022-09-18T12:28:58.841Z,70.50
2022-09-18T12:31:41.190Z,69.70
2022-09-18T12:34:27.586Z,68.50
2022-09-18T12:37:00.510Z,67.20
2022-09-18T12:39:40.371Z,68.40
2022-09-18T12:42:26.833Z,67.90
2022-09-18T12:44:56.955Z,69.30
2022-09-18T12:47:40.191Z,69.00
2022-09-18T12:50:11.311Z,69.20
2022-09-18T12:53:09.010Z,69.40
2022-09-18T12:55:29.569Z,69.10
2022-09-18T12:58:02.618Z,68.20
2022-09-18T13:00:31.867Z,67.60
2022-09-18T13:03:02.023Z,66.80
2022-09-18T13:05:32.166Z,63.70
2022-09-18T13:08:11.901Z,64.40
2022-09-18T13:10:43.254Z,64.50
2022-09-18T13:13:16.958Z,65.80
2022-09-18T13:15:49.866Z,66.00
2022-09-18T13:18:20.678Z,63.40
2022-09-18T13:20:49.240Z,64.90
2022-09-18T13:23:22.404Z,66.70
2022-09-18T13:25:53.427Z,64.90
2022-09-18T13:28:23.763Z,65.80
2022-09-18T13:31:10.891Z,64.50
2022-09-18T13:33:39.795Z,63.90
2022-09-18T13:36:08.383Z,65.80
2022-09-18T13:38:38.016Z,66.00
2022-09-18T13:41:08.106Z,66.50
2022-09-18T13:43:38.267Z,68.20
2022-09-18T13:46:07.759Z,66.50
2022-09-18T13:48:48.787Z,66.10
2022-09-18T13:51:22.266Z,66.50
2022-09-18T13:53:55.415Z,67.10
2022-09-18T13:56:25.493Z,66.80
2022-09-18T13:58:57.437Z,66.50
2022-09-18T14:01:33.493Z,66.00
2022-09-18T14:04:02.243Z,67.40
2022-09-18T14:06:38.690Z,67.80
2022-09-18T14:09:26.856Z,67.60
2022-09-18T14:11:55.482Z,67.30
2022-09-18T14:14:26.095Z,66.60
2022-09-18T14:16:57.962Z,66.50
2022-09-18T14:19:31.220Z,65.10
2022-09-18T14:22:01.462Z,65.50
2022-09-18T14:24:46.703Z,66.20
2022-09-18T14:27:16.922Z,65.20
2022-09-18T14:29:46.191Z,64.70
2022-09-18T14:32:16.772Z,64.40
2022-09-18T14:34:47.019Z,65.50
2022-09-18T14:37:24.009Z,64.70
2022-09-18T14:39:54.885Z,65.70
2022-09-18T14:42:36.988Z,67.20
2022-09-18T14:45:13.165Z,65.70
2022-09-18T14:47:44.077Z,67.30
2022-09-18T14:50:23.513Z,67.30
2022-09-18T14:52:52.351Z,68.20
2022-09-18T14:55:25.645Z,67.00
2022-09-18T14:57:59.085Z,66.00
2022-09-18T15:00:30.825Z,67.40
2022-09-18T15:03:03.965Z,68.10
2022-09-18T15:05:34.184Z,67.90
2022-09-18T15:08:05.321Z,68.20
2022-09-18T15:10:36.097Z,67.60
2022-09-18T15:13:06.419Z,69.10
2022-09-18T15:15:38.332Z,68.80
2022-09-18T15:18:20.476Z,69.30
2022-09-18T15:20:50.839Z,69.50
2022-09-18T15:23:20.648Z,68.80
2022-09-18T15:25:50.806Z,69.30
2022-09-18T15:28:20.811Z,69.60
2022-09-18T15:30:50.921Z,69.20
2022-09-18T15:33:21.222Z,69.10
2022-09-18T15:35:51.334Z,69.30
2022-09-18T15:38:21.499Z,70.10
2022-09-18T15:40:50.736Z,69.70
2022-09-18T15:43:34.539Z,69.10
2022-09-18T15:46:07.622Z,70.20
2022-09-18T15:48:47.699Z,71.70
2022-09-18T15:51:17.968Z,71.30
2022-09-18T15:54:06.015Z,70.90
2022-09-18T15:56:35.343Z,70.80
2022-09-18T15:59:05.507Z,70.60
2022-09-18T16:01:39.800Z,71.60
2022-09-18T16:04:09.939Z,70.90
2022-09-18T16:06:40.265Z,71.50
2022-09-18T16:09:08.829Z,71.10
2022-09-18T16:11:41.671Z,71.90
2022-09-18T16:14:28.198Z,71.40
2022-09-18T16:16:56.825Z,71.50
2022-09-18T16:19:25.463Z,72.10
2022-09-18T16:21:54.036Z,71.30
2022-09-18T16:24:24.195Z,71.90
2022-09-18T16:26:52.825Z,71.60
2022-09-18T16:29:22.634Z,72.00
2022-09-18T16:31:51.315Z,71.50
2022-09-18T16:34:25.068Z,72.20
2022-09-18T16:36:58.347Z,71.90
2022-09-18T16:39:27.282Z,73.40
2022-09-18T16:41:55.844Z,71.70
2022-09-18T16:44:24.898Z,72.50
2022-09-18T16:46:55.298Z,72.60
2022-09-18T16:49:25.456Z,73.70
2022-09-18T16:51:55.818Z,73.70
2022-09-18T16:54:25.266Z,73.20
2022-09-18T16:56:55.365Z,73.50
2022-09-18T16:59:25.749Z,73.90
2022-09-18T17:02:03.851Z,73.10
2022-09-18T17:04:25.469Z,73.80
2022-09-18T17:06:54.126Z,74.80
2022-09-18T17:09:23.994Z,74.50
2022-09-18T17:11:54.351Z,75.50
2022-09-18T17:14:23.575Z,76.30
2022-09-18T17:16:52.297Z,76.80
2022-09-18T17:19:21.223Z,76.40
2022-09-18T17:21:50.271Z,76.90
2022-09-18T17:24:20.480Z,78.00
2022-09-18T17:26:49.088Z,78.60
2022-09-18T17:29:18.516Z,78.70
2022-09-18T17:31:47.086Z,79.00
2022-09-18T17:34:16.710Z,78.90
2022-09-18T17:36:46.080Z,80.10
2022-09-18T17:39:16.647Z,79.50
2022-09-18T17:41:46.047Z,79.80
2022-09-18T17:44:15.589Z,80.50
2022-09-18T17:46:44.491Z,80.90
2022-09-18T17:49:13.123Z,81.50
2022-09-18T17:51:41.795Z,81.80
2022-09-18T17:54:10.633Z,82.30
2022-09-18T17:56:39.257Z,83.00
2022-09-18T17:59:09.782Z,84.00
2022-09-18T18:01:41.733Z,85.10
2022-09-18T18:04:10.372Z,85.60
2022-09-18T18:06:38.982Z,85.70
2022-09-18T18:09:09.890Z,85.80
2022-09-18T18:11:38.694Z,85.80
2022-09-18T18:14:07.602Z,86.30
2022-09-18T18:16:38.371Z,86.40
2022-09-18T18:19:10.274Z,86.80
2022-09-18T18:21:41.321Z,87.80
2022-09-18T18:24:15.003Z,88.80
2022-09-18T18:26:44.613Z,89.50
2022-09-18T18:29:14.779Z,90.00
2022-09-18T18:31:43.673Z,90.40
2022-09-18T18:34:14.202Z,90.40
2022-09-18T18:36:42.836Z,90.70
2022-09-18T18:39:13.107Z,90.70
2022-09-18T18:41:43.413Z,90.90
2022-09-18T18:44:13.220Z,91.10
2022-09-18T18:46:41.840Z,91.20
2022-09-18T18:49:12.432Z,91.10
2022-09-18T18:51:45.880Z,91.10
2022-09-18T18:54:16.227Z,91.20
2022-09-18T18:56:45.003Z,91.40
2022-09-18T18:59:15.062Z,91.80
2022-09-18T19:01:44.338Z,91.70
2022-09-18T19:04:14.152Z,92.00
2022-09-18T19:06:44.634Z,92.00
2022-09-18T19:09:19.291Z,92.10
2022-09-18T19:11:51.667Z,92.20
2022-09-18T19:14:25.963Z,92.40
2022-09-18T19:16:54.870Z,92.70
2022-09-18T19:19:25.205Z,92.70
2022-09-18T19:21:53.871Z,92.80
2022-09-18T19:24:22.844Z,93.00
2022-09-18T19:26:51.461Z,93.50
2022-09-18T19:29:21.846Z,93.70
2022-09-18T19:31:51.086Z,93.80
2022-09-18T19:34:20.889Z,93.90
2022-09-18T19:36:51.121Z,93.90
2022-09-18T19:39:21.666Z,93.90
2022-09-18T19:42:04.676Z,93.70
2022-09-18T19:44:46.757Z,93.70
2022-09-18T19:47:19.762Z,94.10
2022-09-18T19:49:49.774Z,94.30
2022-09-18T19:52:22.896Z,94.40
2022-09-18T19:54:53.450Z,94.40
2022-09-18T19:57:24.026Z,94.70
2022-09-18T19:59:57.448Z,95.10
2022-09-18T20:02:26.957Z,95.20
2022-09-18T20:04:56.634Z,95.10
2022-09-18T20:07:25.442Z,95.20
2022-09-18T20:09:54.226Z,95.40
2022-09-18T20:12:22.804Z,95.40
2022-09-18T20:14:51.403Z,95.30
2022-09-18T20:17:20.064Z,95.40
2022-09-18T20:19:48.704Z,95.20
2022-09-18T20:22:17.297Z,95.60
2022-09-18T20:24:45.868Z,95.70
2022-09-18T20:27:16.034Z,95.40
2022-09-18T20:29:44.784Z,95.20
2022-09-18T20:32:13.416Z,95.40
2022-09-18T20:34:45.902Z,95.20
2022-09-18T20:37:12.890Z,95.10
2022-09-18T20:39:41.447Z,95.20
2022-09-18T20:42:10.020Z,95.30
2022-09-18T20:44:38.613Z,95.00
2022-09-18T20:47:07.485Z,94.80
2022-09-18T20:49:38.031Z,94.70
2022-09-18T20:52:10.318Z,94.50
2022-09-18T20:54:39.592Z,94.50
2022-09-18T20:57:09.129Z,94.50
2022-09-18T20:59:40.012Z,94.50
2022-09-18T21:02:09.132Z,94.30
2022-09-18T21:04:39.428Z,94.20
2022-09-18T21:07:08.054Z,94.60
2022-09-18T21:09:36.612Z,94.60
2022-09-18T21:12:06.623Z,94.70
2022-09-18T21:14:36.847Z,94.80
2022-09-18T21:17:08.591Z,94.70
2022-09-18T21:19:38.595Z,94.90
2022-09-18T21:22:07.221Z,95.00
2022-09-18T21:24:38.202Z,95.50
2022-09-18T21:27:06.818Z,95.60
2022-09-18T21:29:35.935Z,95.70
2022-09-18T21:32:04.605Z,95.70
2022-09-18T21:34:36.614Z,95.80
2022-09-18T21:37:08.517Z,96.00
2022-09-18T21:39:41.880Z,96.00
2022-09-18T21:42:10.956Z,96.20
2022-09-18T21:44:39.592Z,96.10
2022-09-18T21:47:10.631Z,96.30
2022-09-18T21:49:39.465Z,96.30
2022-09-18T21:52:09.288Z,96.40
2022-09-18T21:54:37.852Z,96.40
2022-09-18T21:57:07.370Z,96.50
2022-09-18T21:59:36.510Z,96.60
2022-09-18T22:02:06.477Z,96.60
2022-09-18T22:04:35.145Z,96.70
2022-09-18T22:07:04.456Z,96.60
2022-09-18T22:09:34.475Z,96.60
2022-09-18T22:12:03.142Z,96.60
2022-09-18T22:14:32.571Z,96.60
2022-09-18T22:17:05.943Z,96.70
2022-09-18T22:19:38.069Z,96.60
2022-09-18T22:22:04.811Z,96.70
2022-09-18T22:24:33.466Z,96.80
2022-09-18T22:27:04.820Z,97.30
2022-09-18T22:29:37.508Z,97.30
2022-09-18T22:32:07.113Z,97.30
2022-09-18T22:34:35.695Z,97.20
2022-09-18T22:37:05.039Z,97.30
2022-09-18T22:39:33.725Z,97.10
2022-09-18T22:42:02.573Z,97.30
2022-09-18T22:44:31.918Z,97.20
2022-09-18T22:47:02.372Z,97.20
2022-09-18T22:49:31.055Z,97.30
2022-09-18T22:51:59.620Z,97.50
2022-09-18T22:54:28.642Z,97.60
2022-09-18T22:56:57.270Z,97.60
2022-09-18T22:59:27.448Z,97.80
2022-09-18T23:02:00.478Z,97.90
2022-09-18T23:04:31.012Z,98.30
2022-09-18T23:06:59.694Z,98.60
2022-09-18T23:09:28.266Z,99.10
2022-09-18T23:11:57.881Z,99.20
2022-09-18T23:14:27.994Z,99.40
2022-09-18T23:16:57.467Z,99.70
2022-09-18T23:19:27.450Z,99.90
2022-09-18T23:21:56.354Z,99.90
2022-09-18T23:24:25.492Z,99.90
2022-09-18T23:26:55.651Z,99.90
2022-09-18T23:29:25.978Z,99.90
2022-09-18T23:31:56.901Z,99.90
2022-09-18T23:34:29.320Z,99.90
2022-09-18T23:36:58.517Z,99.90
2022-09-18T23:39:29.091Z,99.90
2022-09-18T23:41:59.590Z,99.90
2022-09-18T23:44:30.154Z,99.90
2022-09-18T23:47:00.356Z,99.90
2022-09-18T23:49:29.488Z,99.90
2022-09-18T23:51:59.663Z,99.90
2022-09-18T23:54:29.567Z,99.90
2022-09-18T23:56:58.221Z,99.90
2022-09-18T23:59:26.926Z,99.90
